Calamocha, Spain
Current Conditions -  °F | °C
As of 9:41 AM on Saturday 20 Dec 2014 (Local Time) from LECH Reporting Station
Light Fog Light Fog  
Wind Chill: 41°   Ceiling: Unl
Heat Index: 41°   Visibility: 0.37mi
Dew Point: 41°   Wind: 0mph
Humidity: 100%   Direction: NA
Pressure: 30.45"   Gusts: NA
Location:  40.92°N, 1.3°W
Report Text: LECH 200841Z 00000KT 0600 R06/0800U BCFG FEW001 05/05 Q1031
Loading
Personal Weather Stations






























Interactive Weather Map New forecast layout! Learn more

10-Day Weather Forecast

Advertisements
Track Severe Weather on mobile